sensor_id;sensor_type;location;lat;lon;timestamp;temperature;humidity
15900;DHT22;8048;50.644;6.184;2022-07-29T00:01:19;17.80;78.20
15900;DHT22;8048;50.644;6.184;2022-07-29T00:03:45;17.90;78.60
15900;DHT22;8048;50.644;6.184;2022-07-29T00:06:11;17.60;79.20
15900;DHT22;8048;50.644;6.184;2022-07-29T00:08:37;17.60;79.60
15900;DHT22;8048;50.644;6.184;2022-07-29T00:11:02;17.60;79.90
15900;DHT22;8048;50.644;6.184;2022-07-29T00:13:28;17.60;79.80
15900;DHT22;8048;50.644;6.184;2022-07-29T00:15:54;17.70;79.60
15900;DHT22;8048;50.644;6.184;2022-07-29T00:18:20;17.60;79.70
15900;DHT22;8048;50.644;6.184;2022-07-29T00:20:45;17.60;79.90
15900;DHT22;8048;50.644;6.184;2022-07-29T00:23:11;17.60;80.00
15900;DHT22;8048;50.644;6.184;2022-07-29T00:25:36;17.40;80.20
15900;DHT22;8048;50.644;6.184;2022-07-29T00:28:02;17.40;81.10
15900;DHT22;8048;50.644;6.184;2022-07-29T00:30:27;17.50;81.00
15900;DHT22;8048;50.644;6.184;2022-07-29T00:32:53;17.60;80.90
15900;DHT22;8048;50.644;6.184;2022-07-29T00:35:19;17.50;80.60
15900;DHT22;8048;50.644;6.184;2022-07-29T00:38:03;17.60;80.70
15900;DHT22;8048;50.644;6.184;2022-07-29T00:40:28;17.50;80.20
15900;DHT22;8048;50.644;6.184;2022-07-29T00:42:54;17.40;79.90
15900;DHT22;8048;50.644;6.184;2022-07-29T00:45:20;17.40;79.90
15900;DHT22;8048;50.644;6.184;2022-07-29T00:47:47;17.40;80.10
15900;DHT22;8048;50.644;6.184;2022-07-29T00:50:13;17.50;80.40
15900;DHT22;8048;50.644;6.184;2022-07-29T00:52:40;17.40;79.10
15900;DHT22;8048;50.644;6.184;2022-07-29T00:55:08;17.40;79.50
15900;DHT22;8048;50.644;6.184;2022-07-29T00:57:35;17.50;79.10
15900;DHT22;8048;50.644;6.184;2022-07-29T01:00:02;17.50;77.90
15900;DHT22;8048;50.644;6.184;2022-07-29T01:02:28;17.30;77.40
15900;DHT22;8048;50.644;6.184;2022-07-29T01:04:54;17.10;77.20
15900;DHT22;8048;50.644;6.184;2022-07-29T01:07:20;17.00;77.20
15900;DHT22;8048;50.644;6.184;2022-07-29T01:09:46;16.90;77.80
15900;DHT22;8048;50.644;6.184;2022-07-29T01:12:23;16.90;78.10
15900;DHT22;8048;50.644;6.184;2022-07-29T01:14:50;16.80;78.20
15900;DHT22;8048;50.644;6.184;2022-07-29T01:17:32;16.80;78.30
15900;DHT22;8048;50.644;6.184;2022-07-29T01:20:17;16.70;78.30
15900;DHT22;8048;50.644;6.184;2022-07-29T01:31:05;16.60;79.50
15900;DHT22;8048;50.644;6.184;2022-07-29T01:33:34;16.60;81.20
15900;DHT22;8048;50.644;6.184;2022-07-29T01:36:37;16.50;82.00
15900;DHT22;8048;50.644;6.184;2022-07-29T01:39:11;16.50;82.50
15900;DHT22;8048;50.644;6.184;2022-07-29T01:41:43;16.40;82.80
15900;DHT22;8048;50.644;6.184;2022-07-29T01:44:20;16.40;82.80
15900;DHT22;8048;50.644;6.184;2022-07-29T01:46:54;16.30;83.30
15900;DHT22;8048;50.644;6.184;2022-07-29T01:49:25;16.30;83.70
15900;DHT22;8048;50.644;6.184;2022-07-29T01:51:59;16.20;83.90
15900;DHT22;8048;50.644;6.184;2022-07-29T01:54:42;16.20;84.40
15900;DHT22;8048;50.644;6.184;2022-07-29T01:57:10;16.20;84.40
15900;DHT22;8048;50.644;6.184;2022-07-29T01:59:37;16.20;85.00
15900;DHT22;8048;50.644;6.184;2022-07-29T02:02:04;16.20;85.30
15900;DHT22;8048;50.644;6.184;2022-07-29T02:04:35;16.20;85.70
15900;DHT22;8048;50.644;6.184;2022-07-29T02:07:03;16.20;86.30
15900;DHT22;8048;50.644;6.184;2022-07-29T02:09:32;16.20;86.20
15900;DHT22;8048;50.644;6.184;2022-07-29T02:11:59;16.10;86.50
15900;DHT22;8048;50.644;6.184;2022-07-29T02:14:26;16.10;87.00
15900;DHT22;8048;50.644;6.184;2022-07-29T02:16:56;16.10;87.20
15900;DHT22;8048;50.644;6.184;2022-07-29T02:19:25;16.00;87.20
15900;DHT22;8048;50.644;6.184;2022-07-29T02:21:52;16.00;87.60
15900;DHT22;8048;50.644;6.184;2022-07-29T02:24:19;16.00;87.90
15900;DHT22;8048;50.644;6.184;2022-07-29T02:26:47;16.00;87.50
15900;DHT22;8048;50.644;6.184;2022-07-29T02:29:14;16.00;87.50
15900;DHT22;8048;50.644;6.184;2022-07-29T02:31:41;15.90;88.30
15900;DHT22;8048;50.644;6.184;2022-07-29T02:34:09;15.90;88.60
15900;DHT22;8048;50.644;6.184;2022-07-29T02:36:36;15.80;88.60
15900;DHT22;8048;50.644;6.184;2022-07-29T02:39:03;15.80;89.00
15900;DHT22;8048;50.644;6.184;2022-07-29T02:41:33;15.70;89.10
15900;DHT22;8048;50.644;6.184;2022-07-29T02:44:12;15.70;89.60
15900;DHT22;8048;50.644;6.184;2022-07-29T02:46:43;15.70;90.00
15900;DHT22;8048;50.644;6.184;2022-07-29T02:52:34;15.60;90.20
15900;DHT22;8048;50.644;6.184;2022-07-29T02:55:18;15.60;90.50
15900;DHT22;8048;50.644;6.184;2022-07-29T02:57:47;15.50;90.80
15900;DHT22;8048;50.644;6.184;2022-07-29T03:00:15;15.40;90.90
15900;DHT22;8048;50.644;6.184;2022-07-29T03:02:44;15.40;91.20
15900;DHT22;8048;50.644;6.184;2022-07-29T03:05:15;15.40;91.40
15900;DHT22;8048;50.644;6.184;2022-07-29T03:07:44;15.30;91.80
15900;DHT22;8048;50.644;6.184;2022-07-29T03:10:11;15.30;92.00
15900;DHT22;8048;50.644;6.184;2022-07-29T03:12:37;15.20;92.00
15900;DHT22;8048;50.644;6.184;2022-07-29T03:15:03;15.20;92.00
15900;DHT22;8048;50.644;6.184;2022-07-29T03:17:30;15.20;92.20
15900;DHT22;8048;50.644;6.184;2022-07-29T03:19:57;15.10;92.40
15900;DHT22;8048;50.644;6.184;2022-07-29T03:22:23;15.10;92.70
15900;DHT22;8048;50.644;6.184;2022-07-29T03:24:49;15.00;93.00
15900;DHT22;8048;50.644;6.184;2022-07-29T03:27:15;15.00;93.30
15900;DHT22;8048;50.644;6.184;2022-07-29T03:29:40;15.00;93.40
15900;DHT22;8048;50.644;6.184;2022-07-29T03:32:06;14.90;93.70
15900;DHT22;8048;50.644;6.184;2022-07-29T03:34:32;15.00;93.60
15900;DHT22;8048;50.644;6.184;2022-07-29T03:36:57;14.90;93.60
15900;DHT22;8048;50.644;6.184;2022-07-29T03:39:25;14.90;93.80
15900;DHT22;8048;50.644;6.184;2022-07-29T03:41:55;14.80;94.00
15900;DHT22;8048;50.644;6.184;2022-07-29T03:44:22;14.80;94.20
15900;DHT22;8048;50.644;6.184;2022-07-29T03:46:50;14.80;94.30
15900;DHT22;8048;50.644;6.184;2022-07-29T03:49:16;14.80;94.40
15900;DHT22;8048;50.644;6.184;2022-07-29T03:51:44;14.70;94.50
15900;DHT22;8048;50.644;6.184;2022-07-29T03:54:10;14.70;94.70
15900;DHT22;8048;50.644;6.184;2022-07-29T03:56:39;14.70;94.80
15900;DHT22;8048;50.644;6.184;2022-07-29T03:59:05;14.60;94.80
15900;DHT22;8048;50.644;6.184;2022-07-29T04:01:33;14.60;94.90
15900;DHT22;8048;50.644;6.184;2022-07-29T04:04:01;14.60;95.10
15900;DHT22;8048;50.644;6.184;2022-07-29T04:06:26;14.60;95.20
15900;DHT22;8048;50.644;6.184;2022-07-29T04:08:52;14.60;95.20
15900;DHT22;8048;50.644;6.184;2022-07-29T04:11:17;14.50;95.40
15900;DHT22;8048;50.644;6.184;2022-07-29T04:13:43;14.50;95.60
15900;DHT22;8048;50.644;6.184;2022-07-29T04:16:09;14.60;96.00
15900;DHT22;8048;50.644;6.184;2022-07-29T04:18:34;14.60;95.70
15900;DHT22;8048;50.644;6.184;2022-07-29T04:21:00;14.70;96.40
15900;DHT22;8048;50.644;6.184;2022-07-29T04:23:27;14.80;97.10
15900;DHT22;8048;50.644;6.184;2022-07-29T04:25:52;14.90;97.60
15900;DHT22;8048;50.644;6.184;2022-07-29T04:28:18;15.00;97.50
15900;DHT22;8048;50.644;6.184;2022-07-29T04:30:44;15.00;98.20
15900;DHT22;8048;50.644;6.184;2022-07-29T04:33:09;15.00;98.60
15900;DHT22;8048;50.644;6.184;2022-07-29T04:35:36;14.90;98.80
15900;DHT22;8048;50.644;6.184;2022-07-29T04:38:03;14.80;99.20
15900;DHT22;8048;50.644;6.184;2022-07-29T04:40:29;14.70;99.50
15900;DHT22;8048;50.644;6.184;2022-07-29T04:42:55;14.60;99.70
15900;DHT22;8048;50.644;6.184;2022-07-29T04:45:20;14.50;99.60
15900;DHT22;8048;50.644;6.184;2022-07-29T04:47:46;14.40;99.90
15900;DHT22;8048;50.644;6.184;2022-07-29T04:50:11;14.40;99.90
15900;DHT22;8048;50.644;6.184;2022-07-29T04:52:37;14.50;99.90
15900;DHT22;8048;50.644;6.184;2022-07-29T04:55:04;14.60;99.90
15900;DHT22;8048;50.644;6.184;2022-07-29T04:57:30;14.70;99.90
15900;DHT22;8048;50.644;6.184;2022-07-29T04:59:55;14.60;99.90
15900;DHT22;8048;50.644;6.184;2022-07-29T05:02:21;14.60;99.90
15900;DHT22;8048;50.644;6.184;2022-07-29T05:04:47;14.50;99.90
15900;DHT22;8048;50.644;6.184;2022-07-29T05:07:13;14.40;99.90
15900;DHT22;8048;50.644;6.184;2022-07-29T05:09:39;14.40;99.90
15900;DHT22;8048;50.644;6.184;2022-07-29T05:12:05;14.40;99.90
15900;DHT22;8048;50.644;6.184;2022-07-29T05:14:31;14.50;99.90
15900;DHT22;8048;50.644;6.184;2022-07-29T05:16:57;14.50;99.90
15900;DHT22;8048;50.644;6.184;2022-07-29T05:19:23;14.40;99.90
15900;DHT22;8048;50.644;6.184;2022-07-29T05:21:49;14.30;99.90
15900;DHT22;8048;50.644;6.184;2022-07-29T05:24:14;14.30;99.90
15900;DHT22;8048;50.644;6.184;2022-07-29T05:26:40;14.40;99.90
15900;DHT22;8048;50.644;6.184;2022-07-29T05:29:05;14.60;99.90
15900;DHT22;8048;50.644;6.184;2022-07-29T05:31:31;14.70;99.90
15900;DHT22;8048;50.644;6.184;2022-07-29T05:33:57;14.70;99.90
15900;DHT22;8048;50.644;6.184;2022-07-29T05:36:22;14.70;99.90
15900;DHT22;8048;50.644;6.184;2022-07-29T05:38:48;14.60;99.90
15900;DHT22;8048;50.644;6.184;2022-07-29T05:41:13;14.70;99.90
15900;DHT22;8048;50.644;6.184;2022-07-29T05:43:39;14.70;99.90
15900;DHT22;8048;50.644;6.184;2022-07-29T05:46:04;14.70;99.90
15900;DHT22;8048;50.644;6.184;2022-07-29T05:48:30;14.80;99.90
15900;DHT22;8048;50.644;6.184;2022-07-29T05:50:55;14.80;99.90
15900;DHT22;8048;50.644;6.184;2022-07-29T05:53:21;15.10;99.90
15900;DHT22;8048;50.644;6.184;2022-07-29T05:55:48;15.20;99.90
15900;DHT22;8048;50.644;6.184;2022-07-29T05:58:14;15.20;99.90
15900;DHT22;8048;50.644;6.184;2022-07-29T06:00:39;15.20;99.90
15900;DHT22;8048;50.644;6.184;2022-07-29T06:03:05;15.20;99.90
15900;DHT22;8048;50.644;6.184;2022-07-29T06:05:30;15.20;99.90
15900;DHT22;8048;50.644;6.184;2022-07-29T06:07:56;15.40;99.90
15900;DHT22;8048;50.644;6.184;2022-07-29T06:10:22;15.30;99.90
15900;DHT22;8048;50.644;6.184;2022-07-29T06:12:47;15.40;99.90
15900;DHT22;8048;50.644;6.184;2022-07-29T06:15:13;15.40;99.90
15900;DHT22;8048;50.644;6.184;2022-07-29T06:17:38;15.30;99.90
15900;DHT22;8048;50.644;6.184;2022-07-29T06:20:04;15.40;99.90
15900;DHT22;8048;50.644;6.184;2022-07-29T06:22:30;15.60;99.40
15900;DHT22;8048;50.644;6.184;2022-07-29T06:24:55;15.70;99.80
15900;DHT22;8048;50.644;6.184;2022-07-29T06:27:21;15.70;99.90
15900;DHT22;8048;50.644;6.184;2022-07-29T06:29:47;15.70;99.90
15900;DHT22;8048;50.644;6.184;2022-07-29T06:32:12;15.80;99.90
15900;DHT22;8048;50.644;6.184;2022-07-29T06:34:38;15.80;99.90
15900;DHT22;8048;50.644;6.184;2022-07-29T06:37:07;15.90;99.90
15900;DHT22;8048;50.644;6.184;2022-07-29T06:39:35;15.80;99.90
15900;DHT22;8048;50.644;6.184;2022-07-29T06:42:01;15.90;99.90
15900;DHT22;8048;50.644;6.184;2022-07-29T06:44:27;16.00;99.90
15900;DHT22;8048;50.644;6.184;2022-07-29T06:46:52;16.10;99.90
15900;DHT22;8048;50.644;6.184;2022-07-29T06:49:19;16.20;99.90
15900;DHT22;8048;50.644;6.184;2022-07-29T06:51:45;16.30;99.90
15900;DHT22;8048;50.644;6.184;2022-07-29T06:54:11;16.30;99.90
15900;DHT22;8048;50.644;6.184;2022-07-29T06:56:38;16.40;99.90
15900;DHT22;8048;50.644;6.184;2022-07-29T06:59:07;16.60;99.90
15900;DHT22;8048;50.644;6.184;2022-07-29T07:01:33;16.70;99.90
15900;DHT22;8048;50.644;6.184;2022-07-29T07:03:59;16.80;99.90
15900;DHT22;8048;50.644;6.184;2022-07-29T07:06:24;17.00;99.90
15900;DHT22;8048;50.644;6.184;2022-07-29T07:08:50;17.10;99.60
15900;DHT22;8048;50.644;6.184;2022-07-29T07:11:15;17.30;99.70
15900;DHT22;8048;50.644;6.184;2022-07-29T07:13:41;17.40;99.40
15900;DHT22;8048;50.644;6.184;2022-07-29T07:16:06;17.60;96.50
15900;DHT22;8048;50.644;6.184;2022-07-29T07:18:32;17.60;96.80
15900;DHT22;8048;50.644;6.184;2022-07-29T07:20:59;17.60;96.60
15900;DHT22;8048;50.644;6.184;2022-07-29T07:23:24;17.70;96.00
15900;DHT22;8048;50.644;6.184;2022-07-29T07:25:50;17.80;95.90
15900;DHT22;8048;50.644;6.184;2022-07-29T07:28:16;17.90;95.70
15900;DHT22;8048;50.644;6.184;2022-07-29T07:30:42;18.00;95.10
15900;DHT22;8048;50.644;6.184;2022-07-29T07:33:07;18.10;95.40
15900;DHT22;8048;50.644;6.184;2022-07-29T07:35:33;18.30;94.90
15900;DHT22;8048;50.644;6.184;2022-07-29T07:37:58;18.40;93.70
15900;DHT22;8048;50.644;6.184;2022-07-29T07:40:24;18.50;93.80
15900;DHT22;8048;50.644;6.184;2022-07-29T07:42:50;18.60;92.20
15900;DHT22;8048;50.644;6.184;2022-07-29T07:45:15;18.70;92.60
15900;DHT22;8048;50.644;6.184;2022-07-29T07:47:41;18.70;92.10
15900;DHT22;8048;50.644;6.184;2022-07-29T07:50:09;18.70;92.10
15900;DHT22;8048;50.644;6.184;2022-07-29T07:52:46;18.60;92.00
15900;DHT22;8048;50.644;6.184;2022-07-29T07:55:12;18.80;91.20
15900;DHT22;8048;50.644;6.184;2022-07-29T07:57:38;19.00;90.60
15900;DHT22;8048;50.644;6.184;2022-07-29T08:00:04;19.20;90.50
15900;DHT22;8048;50.644;6.184;2022-07-29T08:02:29;19.30;89.20
15900;DHT22;8048;50.644;6.184;2022-07-29T08:04:55;19.40;90.00
15900;DHT22;8048;50.644;6.184;2022-07-29T08:07:21;19.50;89.30
15900;DHT22;8048;50.644;6.184;2022-07-29T08:09:46;19.60;89.20
15900;DHT22;8048;50.644;6.184;2022-07-29T08:12:12;19.70;90.50
15900;DHT22;8048;50.644;6.184;2022-07-29T08:14:37;19.70;89.60
15900;DHT22;8048;50.644;6.184;2022-07-29T08:17:03;19.80;89.10
15900;DHT22;8048;50.644;6.184;2022-07-29T08:19:28;20.00;87.60
15900;DHT22;8048;50.644;6.184;2022-07-29T08:21:54;20.20;86.20
15900;DHT22;8048;50.644;6.184;2022-07-29T08:24:20;20.30;87.00
15900;DHT22;8048;50.644;6.184;2022-07-29T08:27:04;20.40;84.80
15900;DHT22;8048;50.644;6.184;2022-07-29T08:29:30;20.40;83.40
15900;DHT22;8048;50.644;6.184;2022-07-29T08:31:55;20.40;84.00
15900;DHT22;8048;50.644;6.184;2022-07-29T08:34:21;20.50;83.80
15900;DHT22;8048;50.644;6.184;2022-07-29T08:36:47;20.40;82.60
15900;DHT22;8048;50.644;6.184;2022-07-29T08:39:12;20.50;81.10
15900;DHT22;8048;50.644;6.184;2022-07-29T08:41:38;20.60;81.00
15900;DHT22;8048;50.644;6.184;2022-07-29T08:44:03;20.60;80.50
15900;DHT22;8048;50.644;6.184;2022-07-29T08:46:29;20.60;80.80
15900;DHT22;8048;50.644;6.184;2022-07-29T08:48:55;20.80;83.70
15900;DHT22;8048;50.644;6.184;2022-07-29T08:51:21;20.90;80.60
15900;DHT22;8048;50.644;6.184;2022-07-29T08:53:49;21.10;81.50
15900;DHT22;8048;50.644;6.184;2022-07-29T08:56:19;21.20;80.90
15900;DHT22;8048;50.644;6.184;2022-07-29T08:58:48;21.30;80.70
15900;DHT22;8048;50.644;6.184;2022-07-29T09:01:16;21.60;79.70
15900;DHT22;8048;50.644;6.184;2022-07-29T09:03:43;21.70;78.40
15900;DHT22;8048;50.644;6.184;2022-07-29T09:06:13;21.80;79.50
15900;DHT22;8048;50.644;6.184;2022-07-29T09:08:39;22.10;78.10
15900;DHT22;8048;50.644;6.184;2022-07-29T09:11:05;22.40;78.40
15900;DHT22;8048;50.644;6.184;2022-07-29T09:13:32;22.70;77.20
15900;DHT22;8048;50.644;6.184;2022-07-29T09:15:58;22.80;75.10
15900;DHT22;8048;50.644;6.184;2022-07-29T09:20:58;23.20;73.10
15900;DHT22;8048;50.644;6.184;2022-07-29T09:26:29;23.80;72.00
15900;DHT22;8048;50.644;6.184;2022-07-29T09:28:56;24.00;71.60
15900;DHT22;8048;50.644;6.184;2022-07-29T09:31:33;24.30;72.70
15900;DHT22;8048;50.644;6.184;2022-07-29T09:33:59;24.40;69.10
15900;DHT22;8048;50.644;6.184;2022-07-29T09:36:26;24.20;69.30
15900;DHT22;8048;50.644;6.184;2022-07-29T09:38:59;24.40;68.90
15900;DHT22;8048;50.644;6.184;2022-07-29T09:41:26;24.50;71.00
15900;DHT22;8048;50.644;6.184;2022-07-29T09:43:56;24.90;70.00
15900;DHT22;8048;50.644;6.184;2022-07-29T09:46:22;25.20;69.10
15900;DHT22;8048;50.644;6.184;2022-07-29T09:51:34;25.40;66.80
15900;DHT22;8048;50.644;6.184;2022-07-29T09:54:00;25.60;67.60
15900;DHT22;8048;50.644;6.184;2022-07-29T09:56:42;25.80;66.70
15900;DHT22;8048;50.644;6.184;2022-07-29T09:59:08;26.30;65.10
15900;DHT22;8048;50.644;6.184;2022-07-29T10:01:34;26.40;65.70
15900;DHT22;8048;50.644;6.184;2022-07-29T10:04:01;26.50;66.30
15900;DHT22;8048;50.644;6.184;2022-07-29T10:06:27;27.20;64.00
15900;DHT22;8048;50.644;6.184;2022-07-29T10:08:54;27.00;60.50
15900;DHT22;8048;50.644;6.184;2022-07-29T10:11:20;27.10;61.50
15900;DHT22;8048;50.644;6.184;2022-07-29T10:13:47;27.30;64.10
15900;DHT22;8048;50.644;6.184;2022-07-29T10:16:14;27.40;61.60
15900;DHT22;8048;50.644;6.184;2022-07-29T10:18:42;27.50;60.60
15900;DHT22;8048;50.644;6.184;2022-07-29T10:21:09;27.50;60.60
15900;DHT22;8048;50.644;6.184;2022-07-29T10:23:36;27.90;60.90
15900;DHT22;8048;50.644;6.184;2022-07-29T10:26:03;28.00;59.60
15900;DHT22;8048;50.644;6.184;2022-07-29T10:28:30;28.50;59.50
15900;DHT22;8048;50.644;6.184;2022-07-29T10:31:01;28.70;58.50
15900;DHT22;8048;50.644;6.184;2022-07-29T10:36:47;28.90;57.40
15900;DHT22;8048;50.644;6.184;2022-07-29T10:42:25;29.20;57.20
15900;DHT22;8048;50.644;6.184;2022-07-29T10:44:53;29.20;56.60
15900;DHT22;8048;50.644;6.184;2022-07-29T10:47:21;29.70;56.80
15900;DHT22;8048;50.644;6.184;2022-07-29T10:49:56;29.90;56.50
15900;DHT22;8048;50.644;6.184;2022-07-29T10:52:22;29.70;56.30
15900;DHT22;8048;50.644;6.184;2022-07-29T10:54:50;30.00;56.30
15900;DHT22;8048;50.644;6.184;2022-07-29T10:57:29;29.70;55.90
15900;DHT22;8048;50.644;6.184;2022-07-29T11:05:18;30.30;55.20
15900;DHT22;8048;50.644;6.184;2022-07-29T11:10:35;29.90;55.50
15900;DHT22;8048;50.644;6.184;2022-07-29T11:13:01;30.20;55.60
15900;DHT22;8048;50.644;6.184;2022-07-29T11:15:27;30.40;54.70
15900;DHT22;8048;50.644;6.184;2022-07-29T11:20:41;30.60;54.20
15900;DHT22;8048;50.644;6.184;2022-07-29T11:23:29;30.80;53.50
15900;DHT22;8048;50.644;6.184;2022-07-29T11:26:16;31.10;54.30
15900;DHT22;8048;50.644;6.184;2022-07-29T11:31:43;31.10;53.10
15900;DHT22;8048;50.644;6.184;2022-07-29T11:47:24;32.10;52.10
15900;DHT22;8048;50.644;6.184;2022-07-29T11:49:51;32.50;51.80
15900;DHT22;8048;50.644;6.184;2022-07-29T11:52:17;32.60;51.60
15900;DHT22;8048;50.644;6.184;2022-07-29T11:54:43;32.70;52.40
15900;DHT22;8048;50.644;6.184;2022-07-29T11:57:10;33.10;51.60
15900;DHT22;8048;50.644;6.184;2022-07-29T11:59:43;33.00;51.20
15900;DHT22;8048;50.644;6.184;2022-07-29T12:02:10;32.90;51.00
15900;DHT22;8048;50.644;6.184;2022-07-29T12:04:52;32.80;50.80
15900;DHT22;8048;50.644;6.184;2022-07-29T12:07:31;33.30;51.30
15900;DHT22;8048;50.644;6.184;2022-07-29T12:09:57;32.50;50.60
15900;DHT22;8048;50.644;6.184;2022-07-29T12:12:23;32.50;50.20
15900;DHT22;8048;50.644;6.184;2022-07-29T12:14:49;32.40;50.90
15900;DHT22;8048;50.644;6.184;2022-07-29T12:17:34;32.60;51.70
15900;DHT22;8048;50.644;6.184;2022-07-29T12:20:05;32.40;51.30
15900;DHT22;8048;50.644;6.184;2022-07-29T12:22:37;32.50;51.40
15900;DHT22;8048;50.644;6.184;2022-07-29T12:25:08;32.70;50.60
15900;DHT22;8048;50.644;6.184;2022-07-29T12:27:35;32.60;50.60
15900;DHT22;8048;50.644;6.184;2022-07-29T12:30:04;32.50;50.60
15900;DHT22;8048;50.644;6.184;2022-07-29T12:32:45;32.60;51.10
15900;DHT22;8048;50.644;6.184;2022-07-29T12:35:14;32.90;50.70
15900;DHT22;8048;50.644;6.184;2022-07-29T12:37:40;32.90;50.70
15900;DHT22;8048;50.644;6.184;2022-07-29T12:40:07;33.10;50.30
15900;DHT22;8048;50.644;6.184;2022-07-29T12:42:34;33.50;49.40
15900;DHT22;8048;50.644;6.184;2022-07-29T12:45:00;34.00;49.70
15900;DHT22;8048;50.644;6.184;2022-07-29T12:47:25;34.40;49.40
15900;DHT22;8048;50.644;6.184;2022-07-29T12:50:13;34.90;48.50
15900;DHT22;8048;50.644;6.184;2022-07-29T12:52:43;35.30;48.20
15900;DHT22;8048;50.644;6.184;2022-07-29T12:55:10;35.80;48.30
15900;DHT22;8048;50.644;6.184;2022-07-29T12:57:50;35.60;46.60
15900;DHT22;8048;50.644;6.184;2022-07-29T13:00:24;35.50;46.70
15900;DHT22;8048;50.644;6.184;2022-07-29T13:02:57;35.40;45.90
15900;DHT22;8048;50.644;6.184;2022-07-29T13:05:23;35.10;46.50
15900;DHT22;8048;50.644;6.184;2022-07-29T13:07:50;34.50;46.80
15900;DHT22;8048;50.644;6.184;2022-07-29T13:10:20;33.90;47.20
15900;DHT22;8048;50.644;6.184;2022-07-29T13:13:05;33.70;47.80
15900;DHT22;8048;50.644;6.184;2022-07-29T13:15:32;33.90;48.20
15900;DHT22;8048;50.644;6.184;2022-07-29T13:17:57;34.30;47.20
15900;DHT22;8048;50.644;6.184;2022-07-29T13:20:25;34.20;47.20
15900;DHT22;8048;50.644;6.184;2022-07-29T13:22:52;34.00;46.90
15900;DHT22;8048;50.644;6.184;2022-07-29T13:25:29;33.60;47.30
15900;DHT22;8048;50.644;6.184;2022-07-29T13:27:55;33.50;47.60
15900;DHT22;8048;50.644;6.184;2022-07-29T13:30:22;33.40;47.70
15900;DHT22;8048;50.644;6.184;2022-07-29T13:32:48;33.20;47.60
15900;DHT22;8048;50.644;6.184;2022-07-29T13:35:14;32.80;47.80
15900;DHT22;8048;50.644;6.184;2022-07-29T13:37:39;32.60;49.00
15900;DHT22;8048;50.644;6.184;2022-07-29T13:40:09;32.80;48.00
15900;DHT22;8048;50.644;6.184;2022-07-29T13:42:35;33.30;49.00
15900;DHT22;8048;50.644;6.184;2022-07-29T13:45:00;33.50;48.30
15900;DHT22;8048;50.644;6.184;2022-07-29T13:47:26;33.70;47.50
15900;DHT22;8048;50.644;6.184;2022-07-29T13:49:52;33.80;47.50
15900;DHT22;8048;50.644;6.184;2022-07-29T13:52:19;33.90;47.80
15900;DHT22;8048;50.644;6.184;2022-07-29T13:54:44;33.80;46.90
15900;DHT22;8048;50.644;6.184;2022-07-29T13:57:11;33.30;46.70
15900;DHT22;8048;50.644;6.184;2022-07-29T13:59:37;33.20;47.80
15900;DHT22;8048;50.644;6.184;2022-07-29T14:02:03;33.20;47.40
15900;DHT22;8048;50.644;6.184;2022-07-29T14:04:28;33.20;47.90
15900;DHT22;8048;50.644;6.184;2022-07-29T14:06:54;33.70;47.90
15900;DHT22;8048;50.644;6.184;2022-07-29T14:09:19;33.90;46.80
15900;DHT22;8048;50.644;6.184;2022-07-29T14:11:45;33.90;47.10
15900;DHT22;8048;50.644;6.184;2022-07-29T14:14:11;34.10;46.40
15900;DHT22;8048;50.644;6.184;2022-07-29T14:16:37;33.90;46.30
15900;DHT22;8048;50.644;6.184;2022-07-29T14:19:03;33.30;47.10
15900;DHT22;8048;50.644;6.184;2022-07-29T14:21:28;32.90;47.80
15900;DHT22;8048;50.644;6.184;2022-07-29T14:23:54;32.70;48.20
15900;DHT22;8048;50.644;6.184;2022-07-29T14:26:21;32.70;48.10
15900;DHT22;8048;50.644;6.184;2022-07-29T14:28:47;32.80;48.30
15900;DHT22;8048;50.644;6.184;2022-07-29T14:31:13;32.50;48.40
15900;DHT22;8048;50.644;6.184;2022-07-29T14:33:39;32.20;48.60
15900;DHT22;8048;50.644;6.184;2022-07-29T14:36:04;32.00;49.20
15900;DHT22;8048;50.644;6.184;2022-07-29T14:38:30;32.30;49.20
15900;DHT22;8048;50.644;6.184;2022-07-29T14:40:55;32.90;48.00
15900;DHT22;8048;50.644;6.184;2022-07-29T14:43:21;32.60;47.80
15900;DHT22;8048;50.644;6.184;2022-07-29T14:45:47;32.60;48.40
15900;DHT22;8048;50.644;6.184;2022-07-29T14:48:12;33.00;48.50
15900;DHT22;8048;50.644;6.184;2022-07-29T14:50:38;32.60;47.40
15900;DHT22;8048;50.644;6.184;2022-07-29T14:53:03;32.30;47.80
15900;DHT22;8048;50.644;6.184;2022-07-29T14:55:29;32.10;48.20
15900;DHT22;8048;50.644;6.184;2022-07-29T14:57:55;32.40;47.10
15900;DHT22;8048;50.644;6.184;2022-07-29T15:00:20;32.10;47.80
15900;DHT22;8048;50.644;6.184;2022-07-29T15:02:47;31.90;47.20
15900;DHT22;8048;50.644;6.184;2022-07-29T15:05:13;32.10;47.40
15900;DHT22;8048;50.644;6.184;2022-07-29T15:07:38;32.30;47.00
15900;DHT22;8048;50.644;6.184;2022-07-29T15:10:04;32.30;46.30
15900;DHT22;8048;50.644;6.184;2022-07-29T15:12:31;32.30;46.60
15900;DHT22;8048;50.644;6.184;2022-07-29T15:14:56;32.40;47.30
15900;DHT22;8048;50.644;6.184;2022-07-29T15:17:22;32.50;46.60
15900;DHT22;8048;50.644;6.184;2022-07-29T15:19:47;32.50;46.60
15900;DHT22;8048;50.644;6.184;2022-07-29T15:22:13;32.40;47.50
15900;DHT22;8048;50.644;6.184;2022-07-29T15:24:38;32.30;47.30
15900;DHT22;8048;50.644;6.184;2022-07-29T15:27:04;32.00;47.60
15900;DHT22;8048;50.644;6.184;2022-07-29T15:29:30;32.10;48.10
15900;DHT22;8048;50.644;6.184;2022-07-29T15:31:55;32.40;47.60
15900;DHT22;8048;50.644;6.184;2022-07-29T15:34:21;32.60;47.50
15900;DHT22;8048;50.644;6.184;2022-07-29T15:36:49;32.60;46.90
15900;DHT22;8048;50.644;6.184;2022-07-29T15:39:15;32.50;47.50
15900;DHT22;8048;50.644;6.184;2022-07-29T15:41:41;32.40;47.20
15900;DHT22;8048;50.644;6.184;2022-07-29T15:44:06;31.90;46.80
15900;DHT22;8048;50.644;6.184;2022-07-29T15:46:32;31.50;47.50
15900;DHT22;8048;50.644;6.184;2022-07-29T15:49:16;30.90;48.10
15900;DHT22;8048;50.644;6.184;2022-07-29T15:51:42;30.50;48.90
15900;DHT22;8048;50.644;6.184;2022-07-29T15:54:07;30.40;48.90
15900;DHT22;8048;50.644;6.184;2022-07-29T15:56:33;30.20;50.30
15900;DHT22;8048;50.644;6.184;2022-07-29T15:58:58;30.00;49.50
15900;DHT22;8048;50.644;6.184;2022-07-29T16:01:24;29.80;49.60
15900;DHT22;8048;50.644;6.184;2022-07-29T16:03:50;29.80;49.60
15900;DHT22;8048;50.644;6.184;2022-07-29T16:06:16;29.80;49.80
15900;DHT22;8048;50.644;6.184;2022-07-29T16:08:42;29.50;49.90
15900;DHT22;8048;50.644;6.184;2022-07-29T16:11:07;29.20;50.30
15900;DHT22;8048;50.644;6.184;2022-07-29T16:13:33;29.40;50.30
15900;DHT22;8048;50.644;6.184;2022-07-29T16:15:58;29.70;51.00
15900;DHT22;8048;50.644;6.184;2022-07-29T16:18:24;29.80;50.60
15900;DHT22;8048;50.644;6.184;2022-07-29T16:20:49;30.20;50.40
15900;DHT22;8048;50.644;6.184;2022-07-29T16:23:15;30.40;50.10
15900;DHT22;8048;50.644;6.184;2022-07-29T16:25:41;30.00;49.40
15900;DHT22;8048;50.644;6.184;2022-07-29T16:28:07;29.70;50.80
15900;DHT22;8048;50.644;6.184;2022-07-29T16:30:33;29.80;50.60
15900;DHT22;8048;50.644;6.184;2022-07-29T16:32:59;29.90;50.50
15900;DHT22;8048;50.644;6.184;2022-07-29T16:35:25;29.90;50.60
15900;DHT22;8048;50.644;6.184;2022-07-29T16:37:51;30.00;50.60
15900;DHT22;8048;50.644;6.184;2022-07-29T16:40:16;29.70;50.40